Time;durP1;ratioP1;P1;durP2;ratioP2;P2;SDS_P1;SDS_P2;PMS_P1;PMS_P2;Temp;Humidity;BMP_temperature;BMP_pressure;BME280_temperature;BME280_humidity;BME280_pressure;Samples;Min_cycle;Max_cycle;Signal;HPM_P1;HPM_P2
2022/03/07 00:04:03;;;;;;;3.17;2.88;;;;;;;3.34;40.38;101027.56;10355257;28;20060;-61
2022/03/07 00:09:05;;;;;;;3.35;3.05;;;;;;;3.25;40.65;101025.28;10357351;28;20195;-62
2022/03/07 00:14:07;;;;;;;4.00;3.60;;;;;;;3.19;39.70;101019.31;10359826;28;20180;-61
2022/03/07 00:19:08;;;;;;;3.60;3.30;;;;;;;3.17;39.73;101023.78;10356696;28;20152;-61
2022/03/07 00:24:10;;;;;;;4.70;3.42;;;;;;;3.16;39.73;101024.69;10352563;28;20065;-63
2022/03/07 00:29:11;;;;;;;4.75;4.25;;;;;;;3.28;39.73;101030.44;10360012;28;20142;-60
2022/03/07 00:34:14;;;;;;;3.97;3.67;;;;;;;3.08;39.61;101029.41;10358554;28;20133;-60
2022/03/07 00:39:15;;;;;;;4.20;3.80;;;;;;;2.86;39.18;101013.53;10356695;28;20103;-60
2022/03/07 00:44:16;;;;;;;4.10;3.70;;;;;;;3.00;39.16;101032.31;10355990;28;20091;-60
2022/03/07 00:49:18;;;;;;;3.78;3.47;;;;;;;2.89;38.94;101009.94;10352041;28;20144;-60
2022/03/07 00:54:20;;;;;;;4.55;4.15;;;;;;;2.92;39.53;101038.78;10355794;28;20077;-60
2022/03/07 00:59:21;;;;;;;5.60;4.70;;;;;;;2.82;39.28;101017.19;10353876;28;20049;-62
2022/03/07 01:04:22;;;;;;;4.45;4.05;;;;;;;2.91;38.50;101032.66;10358489;28;20188;-60
2022/03/07 01:09:24;;;;;;;4.47;4.03;;;;;;;3.06;38.90;101038.25;10361542;28;20096;-60
2022/03/07 01:14:25;;;;;;;4.85;4.43;;;;;;;2.95;38.82;101023.72;10355258;28;20070;-60
2022/03/07 01:19:27;;;;;;;5.57;4.60;;;;;;;2.93;38.54;101030.81;10356998;28;20069;-60
2022/03/07 01:24:30;;;;;;;5.38;4.78;;;;;;;2.65;38.69;100967.84;10357975;28;20429;-59
2022/03/07 01:29:31;;;;;;;5.57;5.07;;;;;;;2.85;38.57;101010.97;10352007;28;20045;-60
2022/03/07 01:34:33;;;;;;;7.18;6.45;;;;;;;2.67;38.51;101009.84;10356502;28;20165;-59
2022/03/07 01:39:34;;;;;;;8.13;6.65;;;;;;;2.72;38.86;101019.31;10361343;28;20197;-60
2022/03/07 01:44:37;;;;;;;7.03;6.43;;;;;;;2.63;39.30;101017.00;10355401;28;20633;-60
2022/03/07 01:49:38;;;;;;;7.78;7.07;;;;;;;2.65;38.69;101016.03;10350023;28;20054;-60
2022/03/07 01:54:40;;;;;;;7.50;6.80;;;;;;;2.68;38.94;101017.69;10353461;28;20057;-60
2022/03/07 01:59:41;;;;;;;8.40;7.53;;;;;;;2.71;39.07;101009.69;10353559;28;20140;-60
2022/03/07 02:04:43;;;;;;;8.15;7.35;;;;;;;2.53;38.31;101005.09;10351316;28;20522;-60
2022/03/07 02:09:44;;;;;;;8.82;7.93;;;;;;;2.69;38.57;101019.41;10352690;28;20061;-61
2022/03/07 02:14:46;;;;;;;9.18;8.32;;;;;;;2.69;38.42;101021.16;10348452;28;20115;-60
2022/03/07 02:19:47;;;;;;;9.77;8.90;;;;;;;2.62;38.90;101020.53;10348279;28;20192;-61
2022/03/07 02:24:49;;;;;;;12.23;9.50;;;;;;;2.54;38.39;101018.19;10351023;28;20054;-60
2022/03/07 02:29:50;;;;;;;9.98;9.07;;;;;;;2.60;38.47;101015.34;10357230;28;20053;-60
2022/03/07 02:34:52;;;;;;;10.13;9.15;;;;;;;2.50;38.92;101011.31;10343615;28;20147;-61
2022/03/07 02:39:54;;;;;;;11.48;10.38;;;;;;;2.58;38.56;101018.91;10346844;28;20053;-61
2022/03/07 02:45:12;;;;;;;11.30;10.30;;;;;;;2.53;38.68;101007.72;10348227;28;20050;-61
2022/03/07 02:50:14;;;;;;;11.70;9.95;;;;;;;2.31;38.92;100984.78;10354213;28;20042;-61
2022/03/07 02:55:18;;;;;;;11.50;9.70;;;;;;;2.33;39.14;100993.50;10351553;28;20053;-61
2022/03/07 03:00:20;;;;;;;12.35;11.15;;;;;;;2.21;39.32;100999.19;10350625;28;20057;-61
2022/03/07 03:05:22;;;;;;;12.93;11.55;;;;;;;2.29;39.12;101005.03;10355511;28;20112;-64
2022/03/07 03:10:23;;;;;;;12.23;11.05;;;;;;;2.19;39.30;101001.88;10354838;28;20404;-60
2022/03/07 03:15:25;;;;;;;11.68;10.57;;;;;;;2.20;39.34;101007.97;10359702;28;20249;-60
2022/03/07 03:20:27;;;;;;;12.88;11.68;;;;;;;2.11;39.61;100993.38;10368188;28;20139;-61
2022/03/07 03:25:28;;;;;;;12.63;11.32;;;;;;;2.24;39.26;101014.84;10359239;28;20570;-60
2022/03/07 03:30:30;;;;;;;12.10;10.90;;;;;;;2.19;39.25;101011.50;10357448;28;20042;-62
2022/03/07 03:35:35;;;;;;;11.82;10.63;;;;;;;2.10;39.99;101004.78;10362096;28;20134;-62
2022/03/07 03:40:37;;;;;;;14.45;12.80;;;;;;;2.02;39.95;100999.78;10360121;28;20061;-62
2022/03/07 03:45:39;;;;;;;12.63;11.38;;;;;;;2.06;40.37;101017.16;10358346;28;20079;-62
2022/03/07 03:50:40;;;;;;;13.25;11.98;;;;;;;1.96;40.00;101004.38;10361043;28;20049;-62
2022/03/07 03:55:42;;;;;;;14.55;13.05;;;;;;;2.00;40.42;101009.50;10358132;28;20142;-63
2022/03/07 04:00:43;;;;;;;13.20;11.95;;;;;;;1.87;40.48;101005.53;10358223;28;20427;-62
2022/03/07 04:05:45;;;;;;;14.40;12.95;;;;;;;1.93;40.54;101021.94;10364040;28;20061;-62
2022/03/07 04:10:46;;;;;;;14.18;12.75;;;;;;;2.02;40.48;101031.28;10359358;28;20078;-66
2022/03/07 04:15:48;;;;;;;15.40;13.75;;;;;;;2.09;40.42;101017.06;10360915;28;20037;-62
2022/03/07 04:20:51;;;;;;;15.15;13.65;;;;;;;2.15;39.98;101012.50;10367069;28;20049;-60
2022/03/07 04:25:53;;;;;;;14.10;12.75;;;;;;;2.38;39.82;101033.59;10360394;28;20045;-61
2022/03/07 04:30:54;;;;;;;13.73;12.43;;;;;;;2.21;39.89;101020.19;10356998;28;20042;-59
2022/03/07 04:35:56;;;;;;;12.45;11.25;;;;;;;2.31;39.94;101026.84;10356910;28;20141;-61
2022/03/07 04:40:57;;;;;;;14.13;12.80;;;;;;;2.45;39.41;101042.16;10356402;28;20515;-61
2022/03/07 04:46:07;;;;;;;13.35;12.10;;;;;;;2.33;39.66;101018.91;10359029;28;20623;-61
2022/03/07 04:51:09;;;;;;;14.70;13.40;;;;;;;2.32;39.48;101028.56;10358662;28;20123;-61
2022/03/07 04:56:10;;;;;;;13.95;12.65;;;;;;;2.43;39.21;101047.47;10360630;28;20542;-64
2022/03/07 05:01:14;;;;;;;14.77;13.40;;;;;;;2.57;38.85;101048.75;10360373;28;20924;-60
2022/03/07 05:06:17;;;;;;;13.85;12.43;;;;;;;2.52;38.39;101035.75;10355925;28;20045;-61
2022/03/07 05:11:18;;;;;;;14.48;13.20;;;;;;;2.55;38.82;101051.44;10355654;28;20045;-60
2022/03/07 05:16:20;;;;;;;14.45;12.98;;;;;;;2.40;38.72;101050.19;10359926;28;20515;-61
2022/03/07 05:21:22;;;;;;;14.15;12.90;;;;;;;2.36;38.98;101048.56;10355627;28;20108;-61
2022/03/07 05:26:23;;;;;;;14.15;12.85;;;;;;;2.28;39.24;101053.22;10356445;28;20053;-61
2022/03/07 05:31:24;;;;;;;13.93;12.60;;;;;;;1.99;39.20;101035.78;10352973;28;20148;-62
2022/03/07 05:36:26;;;;;;;13.27;12.00;;;;;;;2.02;39.03;101057.56;10353870;28;20053;-61
2022/03/07 05:41:28;;;;;;;11.65;10.65;;;;;;;1.91;38.91;101071.03;10358018;28;20101;-61
2022/03/07 05:46:29;;;;;;;11.68;10.68;;;;;;;1.82;38.65;101059.94;10358168;28;20133;-62
2022/03/07 05:51:32;;;;;;;10.13;9.25;;;;;;;1.95;38.55;101069.16;10358098;28;20061;-61
2022/03/07 05:56:33;;;;;;;10.10;9.27;;;;;;;1.89;38.40;101072.84;10336804;28;20643;-61
2022/03/07 06:01:35;;;;;;;9.95;9.10;;;;;;;1.58;38.68;101062.44;10343182;28;20900;-62
2022/03/07 06:06:36;;;;;;;11.00;9.90;;;;;;;1.48;38.49;101025.09;10342638;28;20068;-61
2022/03/07 06:11:38;;;;;;;10.45;9.38;;;;;;;1.92;38.21;101082.38;10345442;28;20538;-61
2022/03/07 06:16:39;;;;;;;10.50;9.57;;;;;;;2.00;37.68;101090.00;10342896;28;20176;-62
2022/03/07 06:21:41;;;;;;;10.70;9.80;;;;;;;2.05;37.93;101091.59;10347805;28;20168;-61
2022/03/07 06:26:42;;;;;;;12.63;11.32;;;;;;;2.08;37.82;101073.13;10343066;28;20053;-62
2022/03/07 06:31:44;;;;;;;9.45;8.65;;;;;;;2.08;37.98;101073.13;10344623;28;20610;-62
2022/03/07 06:36:45;;;;;;;9.40;8.60;;;;;;;2.32;38.04;101080.25;10346190;28;20125;-61
2022/03/07 06:41:47;;;;;;;10.30;9.30;;;;;;;2.27;37.50;101072.53;10343341;28;20283;-61
2022/03/07 06:46:48;;;;;;;8.85;8.02;;;;;;;2.41;37.84;101091.31;10342156;28;20110;-60
2022/03/07 06:51:50;;;;;;;10.13;9.23;;;;;;;2.47;37.53;101096.38;10344311;28;20132;-60
2022/03/07 06:56:52;;;;;;;10.70;9.80;;;;;;;2.78;37.32;101105.84;10340905;28;20088;-61
2022/03/07 07:01:53;;;;;;;10.35;9.40;;;;;;;2.85;37.57;101098.59;10345034;28;20101;-61
2022/03/07 07:06:55;;;;;;;9.68;8.77;;;;;;;3.12;37.21;101088.91;10338575;28;20103;-60
2022/03/07 07:11:58;;;;;;;10.43;9.45;;;;;;;3.37;36.90;101114.31;10344420;28;20050;-60
2022/03/07 07:17:00;;;;;;;9.88;8.98;;;;;;;3.39;37.21;101108.97;10337862;28;20057;-61
2022/03/07 07:22:01;;;;;;;9.38;8.57;;;;;;;3.38;36.59;101116.03;10342212;28;20176;-59
2022/03/07 07:27:04;;;;;;;9.93;8.93;;;;;;;3.44;36.75;101118.44;10342710;28;20137;-59
2022/03/07 07:32:07;;;;;;;9.38;8.52;;;;;;;3.51;37.30;101127.81;10342753;28;20057;-59
2022/03/07 07:37:09;;;;;;;10.45;9.48;;;;;;;3.70;36.85;101135.03;10336977;28;20136;-62
2022/03/07 07:42:18;;;;;;;10.80;9.88;;;;;;;3.84;36.39;101142.41;10340163;28;20638;-62
2022/03/07 07:47:19;;;;;;;12.70;11.52;;;;;;;3.91;36.49;101116.69;10338235;28;20083;-63
2022/03/07 07:52:20;;;;;;;10.57;9.57;;;;;;;4.06;36.39;101130.09;10338197;28;20753;-60
2022/03/07 07:57:22;;;;;;;10.30;9.40;;;;;;;3.86;35.87;101101.91;10334839;28;20057;-60
2022/03/07 08:02:23;;;;;;;9.93;8.95;;;;;;;4.18;35.95;101139.31;10344192;28;20550;-62
2022/03/07 08:07:25;;;;;;;10.32;9.52;;;;;;;4.17;35.45;101132.31;10345107;28;20046;-61
2022/03/07 08:12:27;;;;;;;8.98;8.23;;;;;;;4.37;35.67;101149.13;10345055;28;20065;-61
2022/03/07 08:17:29;;;;;;;9.20;8.27;;;;;;;4.46;35.65;101139.97;10347603;28;20461;-61
2022/03/07 08:22:30;;;;;;;9.20;8.32;;;;;;;4.67;36.11;101146.13;10358683;28;20056;-60
2022/03/07 08:27:34;;;;;;;10.25;9.25;;;;;;;4.89;35.41;101152.22;10348192;28;20111;-60
2022/03/07 08:32:37;;;;;;;8.18;7.47;;;;;;;5.09;34.69;101147.91;10342081;28;20520;-60
2022/03/07 08:37:39;;;;;;;9.27;8.38;;;;;;;5.19;34.33;101146.56;10340534;28;20429;-59
2022/03/07 08:42:41;;;;;;;7.70;7.00;;;;;;;5.65;33.79;101155.06;10343832;28;21472;-60
2022/03/07 08:47:43;;;;;;;9.82;8.85;;;;;;;5.70;33.88;101164.56;10349547;28;20667;-62
2022/03/07 08:52:46;;;;;;;8.82;8.02;;;;;;;5.68;33.93;101129.47;10342114;28;20115;-59
2022/03/07 08:57:47;;;;;;;9.02;8.20;;;;;;;5.88;33.46;101147.03;10343945;28;20091;-62
2022/03/07 09:02:49;;;;;;;7.72;7.07;;;;;;;6.12;33.12;101132.66;10344864;28;20073;-62
2022/03/07 09:07:51;;;;;;;8.55;7.55;;;;;;;6.84;32.02;101148.56;10352967;28;20056;-59
2022/03/07 09:12:54;;;;;;;7.95;7.13;;;;;;;7.19;31.49;101143.25;10347749;28;20060;-58
2022/03/07 09:17:55;;;;;;;7.68;6.97;;;;;;;7.88;30.49;101130.75;10341188;28;20065;-60
2022/03/07 09:22:57;;;;;;;7.40;6.70;;;;;;;8.36;29.75;101138.69;10346724;28;20103;-60
2022/03/07 09:27:58;;;;;;;6.75;6.15;;;;;;;8.61;29.21;101135.53;10346035;28;20104;-60
2022/03/07 09:33:03;;;;;;;7.55;6.82;;;;;;;8.89;28.67;101137.41;10357274;28;20057;-65
2022/03/07 09:38:05;;;;;;;6.90;6.30;;;;;;;9.07;28.14;101134.59;10347003;28;20096;-59
2022/03/07 09:43:06;;;;;;;6.68;6.13;;;;;;;9.55;27.64;101144.03;10343317;28;20053;-60
2022/03/07 09:48:11;;;;;;;6.85;5.97;;;;;;;9.65;27.38;101138.13;10347447;28;20130;-61
2022/03/07 09:53:13;;;;;;;6.72;6.03;;;;;;;9.99;26.65;101147.50;10361548;28;20663;-59
2022/03/07 09:58:16;;;;;;;5.93;5.43;;;;;;;10.41;25.65;101148.38;10350450;28;20078;-59
2022/03/07 10:03:20;;;;;;;5.53;5.07;;;;;;;10.47;25.71;101131.13;10347417;28;20049;-60
2022/03/07 10:08:29;;;;;;;5.95;5.38;;;;;;;11.21;24.83;101142.13;10348074;28;20049;-59
2022/03/07 10:13:30;;;;;;;5.28;4.88;;;;;;;12.42;23.11;101128.28;10344767;28;21325;-61
2022/03/07 10:18:33;;;;;;;6.00;5.50;;;;;;;15.94;19.64;101131.88;10343283;28;20064;-61
2022/03/07 10:23:35;;;;;;;6.20;5.70;;;;;;;16.99;17.69;101096.28;10344972;28;20079;-59
2022/03/07 10:28:38;;;;;;;6.45;5.95;;;;;;;17.32;17.96;101134.44;10345615;28;20061;-61
2022/03/07 10:33:40;;;;;;;6.03;5.53;;;;;;;14.49;20.90;101129.84;10343048;28;20071;-61
2022/03/07 10:38:44;;;;;;;5.53;5.15;;;;;;;15.17;20.16;101112.59;10341004;28;20087;-60
2022/03/07 10:43:47;;;;;;;5.85;5.30;;;;;;;16.18;19.28;101121.63;10344199;28;20083;-61
2022/03/07 10:48:50;;;;;;;;;;;;;;;17.82;17.63;101126.03;10347834;28;20053;-61
2022/03/07 10:53:53;;;;;;;5.85;5.35;;;;;;;21.63;14.46;101114.06;10340762;28;20598;-61
2022/03/07 10:58:55;;;;;;;5.07;4.75;;;;;;;17.62;17.23;101124.41;10339598;28;20760;-60
2022/03/07 11:03:57;;;;;;;6.38;5.80;;;;;;;19.99;16.01;101121.16;10339127;28;20089;-60
2022/03/07 11:08:58;;;;;;;5.75;5.35;;;;;;;19.00;16.44;101109.00;10344501;28;20053;-60
2022/03/07 11:14:00;;;;;;;5.47;5.07;;;;;;;20.24;15.35;101108.56;10336136;28;20124;-60
2022/03/07 11:19:02;;;;;;;5.53;5.13;;;;;;;20.04;15.62;101113.44;10339085;28;20058;-61
2022/03/07 11:24:04;;;;;;;5.70;5.20;;;;;;;22.36;13.43;101109.31;10341887;28;20050;-60
2022/03/07 11:29:05;;;;;;;5.87;5.30;;;;;;;24.57;12.04;101091.47;10338659;28;20055;-61
2022/03/07 11:34:09;;;;;;;5.75;5.30;;;;;;;24.27;12.31;101099.75;10333513;28;20689;-60
2022/03/07 11:39:12;;;;;;;5.05;4.72;;;;;;;24.61;11.81;101092.81;10362881;28;21570;-62
2022/03/07 11:44:22;;;;;;;5.30;4.90;;;;;;;26.15;11.03;101081.94;10349502;28;20046;-61
2022/03/07 11:49:31;;;;;;;5.47;5.13;;;;;;;21.83;13.68;101082.81;10346103;28;20432;-61
2022/03/07 11:54:33;;;;;;;6.53;5.93;;;;;;;18.55;16.45;101084.72;10348051;28;20161;-61
2022/03/07 11:59:36;;;;;;;6.93;6.25;;;;;;;24.73;12.19;101063.16;10345084;28;20077;-61
2022/03/07 12:04:44;;;;;;;;;;;;;;;20.44;14.93;101060.41;10346322;28;20088;-60
2022/03/07 12:09:45;;;;;;;5.88;5.47;;;;;;;26.17;11.16;101041.69;10348032;28;20335;-61
2022/03/07 12:14:47;;;;;;;7.40;6.30;;;;;;;27.77;9.68;101035.94;10348538;28;20172;-61
2022/03/07 12:19:58;;;;;;;5.45;5.00;;;;;;;28.17;9.93;101030.25;10348212;28;20042;-61
2022/03/07 12:25:05;;;;;;;5.13;4.68;;;;;;;29.51;9.23;101018.00;10345439;28;20041;-60
2022/03/07 12:30:08;;;;;;;5.15;4.82;;;;;;;29.76;8.98;101001.41;10341781;28;20050;-63
2022/03/07 12:35:09;;;;;;;5.07;4.68;;;;;;;30.88;7.80;100993.47;10342551;28;20055;-62
2022/03/07 12:40:11;;;;;;;4.20;3.90;;;;;;;29.90;8.08;100988.34;10347238;28;20106;-62
2022/03/07 12:45:17;;;;;;;4.05;3.75;;;;;;;30.81;7.97;100981.78;10345612;28;20621;-62
2022/03/07 12:50:28;;;;;;;4.78;4.35;;;;;;;30.46;7.99;100993.59;10352551;28;20083;-62
2022/03/07 12:55:29;;;;;;;;;;;;;;;31.98;7.30;100995.38;10347312;28;20101;-61
2022/03/07 13:00:32;;;;;;;4.43;4.05;;;;;;;32.33;6.93;100970.41;10353168;28;20620;-61
2022/03/07 13:05:33;;;;;;;4.00;3.70;;;;;;;30.42;7.88;100986.94;10382084;28;20141;-61
2022/03/07 13:10:35;;;;;;;3.78;3.47;;;;;;;30.95;7.52;100961.19;10348779;28;20121;-62
2022/03/07 13:15:41;;;;;;;4.20;3.80;;;;;;;31.53;7.67;100972.28;10351722;28;20051;-62
2022/03/07 13:20:42;;;;;;;3.80;3.50;;;;;;;31.17;7.83;100957.84;10343685;28;20054;-63
2022/03/07 13:25:50;;;;;;;3.42;3.15;;;;;;;31.35;7.45;100957.63;10351953;28;20060;-60
2022/03/07 13:30:51;;;;;;;4.05;3.70;;;;;;;30.90;7.92;100928.13;10349407;28;20691;-61
2022/03/07 13:35:53;;;;;;;3.47;3.28;;;;;;;31.64;7.50;100937.56;10348300;28;20148;-63
2022/03/07 13:41:05;;;;;;;3.50;3.15;;;;;;;31.39;7.25;100916.72;10344011;28;20041;-63
2022/03/07 13:46:14;;;;;;;4.28;3.88;;;;;;;31.13;7.82;100929.16;10366500;28;20030;-61
2022/03/07 13:51:16;;;;;;;4.05;3.65;;;;;;;30.62;8.04;100918.72;10355551;28;20081;-63
2022/03/07 13:56:25;;;;;;;4.45;3.30;;;;;;;31.14;7.96;100906.09;10342369;28;20050;-63
2022/03/07 14:01:29;;;;;;;2.80;2.63;;;;;;;31.21;7.59;100912.25;10343050;28;20750;-60
2022/03/07 14:06:36;;;;;;;10.73;4.00;;;;;;;30.54;8.08;100910.84;10358610;28;20099;-63
2022/03/07 14:11:39;;;;;;;2.67;2.47;;;;;;;30.71;7.83;100908.19;10358313;28;20057;-62
2022/03/07 14:16:42;;;;;;;3.08;2.85;;;;;;;29.88;7.94;100907.38;10350856;28;20081;-62
2022/03/07 14:21:44;;;;;;;3.33;3.13;;;;;;;30.06;8.18;100909.16;10345245;28;20053;-62
2022/03/07 14:26:49;;;;;;;3.17;2.85;;;;;;;29.73;8.12;100905.84;10342139;28;20049;-62
2022/03/07 14:31:51;;;;;;;2.83;2.50;;;;;;;30.22;8.39;100899.38;10350037;28;20049;-62
2022/03/07 14:36:52;;;;;;;3.28;2.97;;;;;;;28.46;8.61;100895.66;10346413;28;20139;-61
2022/03/07 14:41:53;;;;;;;3.17;2.35;;;;;;;26.68;9.54;100895.53;10345479;28;20124;-62
2022/03/07 14:47:10;;;;;;;2.17;2.08;;;;;;;22.67;11.97;100892.16;10342211;28;20053;-61
2022/03/07 14:52:13;;;;;;;2.45;2.22;;;;;;;20.18;14.48;100892.19;10341823;28;20108;-61
2022/03/07 14:57:15;;;;;;;5.65;2.55;;;;;;;18.00;16.09;100891.75;10340863;28;20060;-60
2022/03/07 15:02:17;;;;;;;3.35;2.50;;;;;;;16.46;17.35;100897.91;10345018;28;20037;-60
2022/03/07 15:07:18;;;;;;;5.87;2.93;;;;;;;15.13;18.57;100891.28;10343460;28;20073;-60
2022/03/07 15:12:20;;;;;;;3.53;3.00;;;;;;;14.39;19.44;100901.25;10352568;28;20531;-61
2022/03/07 15:17:22;;;;;;;3.63;3.28;;;;;;;13.51;20.24;100884.59;10347675;28;20085;-61
2022/03/07 15:22:24;;;;;;;3.58;3.28;;;;;;;12.73;21.58;100891.75;10341581;28;20057;-60
2022/03/07 15:27:26;;;;;;;3.40;3.10;;;;;;;12.14;22.13;100890.09;10357570;28;20145;-60
2022/03/07 15:32:27;;;;;;;3.63;3.33;;;;;;;11.65;22.72;100884.84;10368099;28;20084;-61
2022/03/07 15:37:29;;;;;;;3.78;3.47;;;;;;;10.99;23.41;100880.84;10354107;28;20222;-61
2022/03/07 15:42:30;;;;;;;4.38;3.88;;;;;;;10.79;23.48;100885.78;10362264;28;20080;-61
2022/03/07 15:47:32;;;;;;;3.60;3.30;;;;;;;10.60;24.33;100873.78;10348414;28;20056;-61
2022/03/07 15:52:36;;;;;;;3.92;3.63;;;;;;;10.24;24.29;100870.06;10374877;28;20224;-62
2022/03/07 15:57:39;;;;;;;3.95;3.65;;;;;;;10.09;25.07;100863.13;10357275;28;20810;-63
2022/03/07 16:02:41;;;;;;;5.32;4.38;;;;;;;10.09;25.13;100876.44;10349882;28;20049;-59
2022/03/07 16:07:42;;;;;;;7.55;4.00;;;;;;;10.02;24.82;100872.50;10351365;28;20053;-59
2022/03/07 16:12:44;;;;;;;4.20;3.80;;;;;;;9.63;25.01;100852.97;10351939;28;20061;-59
2022/03/07 16:17:46;;;;;;;4.07;3.47;;;;;;;9.40;24.84;100846.50;10344846;28;20061;-60
2022/03/07 16:22:47;;;;;;;3.90;3.58;;;;;;;9.32;25.34;100854.97;10351615;28;20129;-64
2022/03/07 16:27:48;;;;;;;3.65;3.30;;;;;;;9.11;25.65;100867.84;10355003;28;20197;-59
2022/03/07 16:32:51;;;;;;;4.35;3.35;;;;;;;9.27;25.66;100868.56;10347202;28;20125;-59
2022/03/07 16:37:53;;;;;;;4.22;3.80;;;;;;;9.01;25.48;100862.31;10351901;28;20049;-60
2022/03/07 16:42:56;;;;;;;5.00;4.03;;;;;;;8.53;26.56;100885.66;10359528;28;20072;-59
2022/03/07 16:47:57;;;;;;;5.03;3.90;;;;;;;8.53;26.58;100869.72;10364016;28;20053;-61
2022/03/07 16:53:00;;;;;;;4.25;3.85;;;;;;;8.65;26.86;100892.88;10368907;28;20095;-63
2022/03/07 16:58:01;;;;;;;4.60;3.70;;;;;;;8.58;26.82;100879.13;10353404;28;20077;-61
2022/03/07 17:03:03;;;;;;;4.60;3.60;;;;;;;8.46;27.24;100894.00;10343715;28;20058;-60
2022/03/07 17:08:05;;;;;;;4.25;3.70;;;;;;;8.25;27.35;100882.03;10349845;28;20215;-62
2022/03/07 17:13:06;;;;;;;5.63;4.50;;;;;;;8.18;27.48;100889.50;10352206;28;20042;-62
2022/03/07 17:18:08;;;;;;;6.50;5.80;;;;;;;8.26;27.95;100913.75;10347179;28;20057;-61
2022/03/07 17:23:11;;;;;;;4.53;4.10;;;;;;;8.12;27.86;100917.25;10351141;28;20538;-58
2022/03/07 17:28:12;;;;;;;6.03;4.90;;;;;;;8.05;28.37;100913.25;10345084;28;20073;-59
2022/03/07 17:33:14;;;;;;;7.75;6.28;;;;;;;8.06;28.46;100922.91;10338031;28;20128;-57
2022/03/07 17:38:16;;;;;;;5.40;4.90;;;;;;;8.01;28.72;100929.44;10344199;28;20053;-59
2022/03/07 17:43:18;;;;;;;6.47;4.57;;;;;;;7.71;28.95;100917.88;10348264;28;20727;-62
2022/03/07 17:48:20;;;;;;;5.50;5.00;;;;;;;7.73;28.85;100931.91;10342865;28;21088;-67
2022/03/07 17:53:21;;;;;;;6.55;5.95;;;;;;;7.67;29.19;100932.25;10342443;28;20056;-61
2022/03/07 17:58:23;;;;;;;10.40;7.70;;;;;;;7.60;29.41;100930.91;10341716;28;20827;-61
2022/03/07 18:03:24;;;;;;;7.70;6.97;;;;;;;7.38;29.59;100916.19;10340489;28;20057;-62
2022/03/07 18:08:26;;;;;;;6.88;6.15;;;;;;;7.39;29.81;100944.41;10342569;28;20057;-61
2022/03/07 18:13:27;;;;;;;6.88;6.28;;;;;;;7.39;30.03;100939.13;10340951;28;20053;-61
2022/03/07 18:18:29;;;;;;;90.70;65.53;;;;;;;7.36;31.39;100925.19;10339253;28;20045;-60
2022/03/07 18:23:30;;;;;;;11.85;10.65;;;;;;;7.38;30.37;100957.75;10337599;28;20054;-61
2022/03/07 18:28:32;;;;;;;7.97;7.00;;;;;;;7.32;30.83;100964.22;10339650;28;20053;-61
2022/03/07 18:33:34;;;;;;;8.27;6.30;;;;;;;7.29;31.09;100968.84;10339119;28;20056;-60
2022/03/07 18:38:35;;;;;;;10.32;7.28;;;;;;;7.15;31.23;100949.28;10339735;28;20057;-63
2022/03/07 18:43:40;;;;;;;7.50;6.72;;;;;;;7.16;31.35;100966.88;10337329;28;20517;-61
2022/03/07 18:48:41;;;;;;;7.55;6.82;;;;;;;7.02;31.23;100962.31;10338839;28;20057;-61
2022/03/07 18:53:42;;;;;;;8.35;7.03;;;;;;;6.89;31.56;100971.84;10339336;28;20423;-60
2022/03/07 18:58:44;;;;;;;8.98;7.28;;;;;;;6.77;31.49;100952.22;10341332;28;20049;-61
2022/03/07 19:03:45;;;;;;;9.00;7.65;;;;;;;6.75;31.51;100959.38;10341575;28;20054;-60
2022/03/07 19:08:47;;;;;;;11.35;7.85;;;;;;;6.82;31.82;100973.16;10336089;28;20759;-60
2022/03/07 19:13:48;;;;;;;8.27;7.45;;;;;;;6.77;31.93;100969.88;10339036;28;20890;-62
2022/03/07 19:18:51;;;;;;;8.18;7.38;;;;;;;6.73;32.21;100972.69;10337476;28;20130;-60
2022/03/07 19:23:52;;;;;;;9.63;7.80;;;;;;;6.76;32.23;100976.13;10341220;28;20049;-61
2022/03/07 19:28:54;;;;;;;8.95;7.80;;;;;;;6.70;32.46;100983.44;10340950;28;20073;-62
2022/03/07 19:33:56;;;;;;;13.05;8.73;;;;;;;6.65;32.36;100987.25;10340145;28;20049;-64
2022/03/07 19:38:57;;;;;;;9.25;8.35;;;;;;;6.55;32.27;100976.31;10341744;28;20084;-62
2022/03/07 19:43:59;;;;;;;8.93;8.02;;;;;;;6.60;33.38;100984.84;10338745;28;20113;-62
2022/03/07 19:49:00;;;;;;;15.43;11.02;;;;;;;6.54;32.87;100987.81;10338592;28;20053;-62
2022/03/07 19:54:02;;;;;;;10.35;8.70;;;;;;;6.50;33.30;100986.25;10341340;28;20167;-62
2022/03/07 19:59:05;;;;;;;9.88;8.80;;;;;;;6.37;33.26;100989.53;10344132;28;20168;-63
2022/03/07 20:04:06;;;;;;;12.65;9.85;;;;;;;6.47;34.32;101002.28;10343603;28;20042;-61
2022/03/07 20:09:08;;;;;;;11.63;10.52;;;;;;;6.44;33.40;101002.44;10344909;28;20050;-61
2022/03/07 20:14:10;;;;;;;11.95;10.65;;;;;;;6.32;33.97;101012.72;10347471;28;20075;-61
2022/03/07 20:19:12;;;;;;;12.55;11.25;;;;;;;6.13;34.44;100988.16;10343297;28;20129;-61
2022/03/07 20:24:13;;;;;;;12.07;10.65;;;;;;;6.15;34.32;100992.41;10342630;28;20571;-61
2022/03/07 20:29:14;;;;;;;12.57;9.93;;;;;;;6.13;34.17;100996.06;10339225;28;20056;-61
2022/03/07 20:34:16;;;;;;;10.93;9.32;;;;;;;5.94;34.20;100990.81;10345304;28;20050;-61
2022/03/07 20:39:18;;;;;;;8.85;8.05;;;;;;;5.74;34.35;100981.22;10341666;28;20064;-60
2022/03/07 20:44:19;;;;;;;11.43;10.15;;;;;;;5.79;34.52;100985.34;10341543;28;20123;-60
2022/03/07 20:49:20;;;;;;;19.38;17.08;;;;;;;5.69;34.54;100983.22;10340798;28;20061;-61
2022/03/07 20:54:22;;;;;;;34.50;27.60;;;;;;;5.62;34.50;100994.09;10346687;28;20136;-61
2022/03/07 20:59:24;;;;;;;28.25;22.33;;;;;;;5.61;34.74;101005.56;10343310;28;20054;-61
2022/03/07 21:04:25;;;;;;;26.83;16.90;;;;;;;5.54;34.73;101012.09;10348400;28;20071;-61
2022/03/07 21:09:27;;;;;;;15.77;11.30;;;;;;;5.43;35.75;101023.13;10341014;28;20219;-63
2022/03/07 21:14:31;;;;;;;10.15;9.15;;;;;;;5.39;35.62;101028.63;10344912;28;20060;-60
2022/03/07 21:19:32;;;;;;;8.83;7.93;;;;;;;5.40;35.55;101019.81;10340179;28;20845;-61
2022/03/07 21:24:34;;;;;;;8.90;7.72;;;;;;;5.10;35.44;100983.34;10343347;28;21658;-61
2022/03/07 21:29:37;;;;;;;7.53;6.82;;;;;;;5.29;35.26;101000.03;10338391;28;20064;-61
2022/03/07 21:34:38;;;;;;;9.70;7.10;;;;;;;5.17;35.34;100997.13;10337967;28;20062;-61
2022/03/07 21:39:39;;;;;;;8.50;7.28;;;;;;;5.22;35.84;101013.59;10337733;28;20102;-61
2022/03/07 21:44:41;;;;;;;7.47;6.75;;;;;;;5.15;36.02;101020.94;10335926;28;20091;-61
2022/03/07 21:49:42;;;;;;;8.68;7.78;;;;;;;5.09;36.30;101026.50;10334566;28;20044;-61
2022/03/07 21:54:44;;;;;;;11.02;7.20;;;;;;;5.01;36.50;101028.63;10337993;28;20055;-62
2022/03/07 21:59:45;;;;;;;9.18;8.27;;;;;;;4.83;36.96;100999.47;10337741;28;20566;-62
2022/03/07 22:04:47;;;;;;;9.88;8.40;;;;;;;4.87;37.33;101022.16;10335499;28;20428;-62
2022/03/07 22:09:49;;;;;;;11.65;9.05;;;;;;;4.83;37.54;101027.66;10337757;28;20154;-62
2022/03/07 22:14:50;;;;;;;10.07;9.00;;;;;;;4.55;37.79;100998.06;10339390;28;20599;-64
2022/03/07 22:19:51;;;;;;;10.45;9.45;;;;;;;4.55;38.05;101005.13;10339650;28;20046;-65
2022/03/07 22:24:53;;;;;;;10.00;8.73;;;;;;;4.56;38.58;101012.97;10340441;28;20056;-63
2022/03/07 22:29:54;;;;;;;7.72;6.93;;;;;;;4.49;38.56;101013.28;10334209;28;20051;-61
2022/03/07 22:34:56;;;;;;;7.68;6.95;;;;;;;4.43;38.70;101015.28;10340476;28;20045;-61
2022/03/07 22:39:57;;;;;;;7.38;6.68;;;;;;;4.41;38.55;101010.97;10340884;28;20133;-62
2022/03/07 22:44:58;;;;;;;7.68;6.88;;;;;;;4.29;38.60;100995.69;10328532;28;20045;-65
2022/03/07 22:50:00;;;;;;;9.68;7.95;;;;;;;4.34;39.15;101018.31;10349910;28;20184;-60
2022/03/07 22:55:03;;;;;;;7.65;6.95;;;;;;;4.32;38.96;101011.38;10355093;28;20049;-63
2022/03/07 23:00:11;;;;;;;8.02;7.25;;;;;;;4.27;39.49;101005.47;10356615;28;20552;-61
2022/03/07 23:10:33;;;;;;;8.43;7.28;;;;;;;4.21;39.74;101022.38;10349690;28;20073;-64
2022/03/07 23:15:36;;;;;;;8.80;7.55;;;;;;;4.09;39.85;100991.28;10352400;28;20914;-62
2022/03/07 23:20:37;;;;;;;8.77;7.55;;;;;;;4.14;40.05;101005.94;10352702;28;20643;-61
2022/03/07 23:25:39;;;;;;;8.90;7.88;;;;;;;4.12;40.03;101010.44;10349692;28;20486;-61